sensor_id;sensor_type;location;lat;lon;timestamp;P1;durP1;ratioP1;P2;durP2;ratioP2
51828;SDS011;37881;48.024;8.774;2023-04-24T00:02:07;2.75;;;1.33;;
51828;SDS011;37881;48.024;8.774;2023-04-24T00:04:37;2.28;;;1.10;;
51828;SDS011;37881;48.024;8.774;2023-04-24T00:07:06;3.97;;;1.73;;
51828;SDS011;37881;48.024;8.774;2023-04-24T00:09:33;2.08;;;1.00;;
51828;SDS011;37881;48.024;8.774;2023-04-24T00:12:00;2.70;;;1.03;;
51828;SDS011;37881;48.024;8.774;2023-04-24T00:14:28;2.80;;;1.23;;
51828;SDS011;37881;48.024;8.774;2023-04-24T00:16:55;3.05;;;1.40;;
51828;SDS011;37881;48.024;8.774;2023-04-24T00:19:22;3.50;;;1.33;;
51828;SDS011;37881;48.024;8.774;2023-04-24T00:21:48;2.03;;;1.02;;
51828;SDS011;37881;48.024;8.774;2023-04-24T00:24:16;2.33;;;1.20;;
51828;SDS011;37881;48.024;8.774;2023-04-24T00:26:43;2.05;;;1.10;;
51828;SDS011;37881;48.024;8.774;2023-04-24T00:29:10;2.13;;;1.02;;
51828;SDS011;37881;48.024;8.774;2023-04-24T00:31:37;2.85;;;1.10;;
51828;SDS011;37881;48.024;8.774;2023-04-24T00:34:03;2.20;;;1.13;;
51828;SDS011;37881;48.024;8.774;2023-04-24T00:36:31;3.23;;;1.30;;
51828;SDS011;37881;48.024;8.774;2023-04-24T00:38:58;2.38;;;1.10;;
51828;SDS011;37881;48.024;8.774;2023-04-24T00:41:25;3.20;;;1.17;;
51828;SDS011;37881;48.024;8.774;2023-04-24T00:43:52;2.25;;;0.90;;
51828;SDS011;37881;48.024;8.774;2023-04-24T00:46:19;2.70;;;1.30;;
51828;SDS011;37881;48.024;8.774;2023-04-24T00:48:47;4.10;;;1.40;;
51828;SDS011;37881;48.024;8.774;2023-04-24T00:51:13;2.78;;;1.20;;
51828;SDS011;37881;48.024;8.774;2023-04-24T00:53:41;2.13;;;1.20;;
51828;SDS011;37881;48.024;8.774;2023-04-24T00:56:07;2.25;;;1.10;;
51828;SDS011;37881;48.024;8.774;2023-04-24T00:58:34;3.85;;;1.33;;
51828;SDS011;37881;48.024;8.774;2023-04-24T01:01:01;3.40;;;1.47;;
51828;SDS011;37881;48.024;8.774;2023-04-24T01:03:29;3.25;;;1.20;;
51828;SDS011;37881;48.024;8.774;2023-04-24T01:06:00;2.60;;;1.35;;
51828;SDS011;37881;48.024;8.774;2023-04-24T01:08:27;3.10;;;1.20;;
51828;SDS011;37881;48.024;8.774;2023-04-24T01:10:54;2.67;;;1.60;;
51828;SDS011;37881;48.024;8.774;2023-04-24T01:13:23;2.73;;;1.10;;
51828;SDS011;37881;48.024;8.774;2023-04-24T01:15:50;2.78;;;1.30;;
51828;SDS011;37881;48.024;8.774;2023-04-24T01:18:17;2.95;;;1.40;;
51828;SDS011;37881;48.024;8.774;2023-04-24T01:20:44;3.60;;;1.30;;
51828;SDS011;37881;48.024;8.774;2023-04-24T01:23:11;2.72;;;1.23;;
51828;SDS011;37881;48.024;8.774;2023-04-24T01:25:38;2.60;;;1.30;;
51828;SDS011;37881;48.024;8.774;2023-04-24T01:28:05;3.08;;;1.20;;
51828;SDS011;37881;48.024;8.774;2023-04-24T01:30:32;3.30;;;1.58;;
51828;SDS011;37881;48.024;8.774;2023-04-24T01:32:59;2.72;;;1.30;;
51828;SDS011;37881;48.024;8.774;2023-04-24T01:35:26;3.08;;;1.52;;
51828;SDS011;37881;48.024;8.774;2023-04-24T01:37:53;3.23;;;1.50;;
51828;SDS011;37881;48.024;8.774;2023-04-24T01:40:20;2.80;;;1.50;;
51828;SDS011;37881;48.024;8.774;2023-04-24T01:42:47;3.35;;;1.55;;
51828;SDS011;37881;48.024;8.774;2023-04-24T01:45:14;2.55;;;1.50;;
51828;SDS011;37881;48.024;8.774;2023-04-24T01:47:41;3.88;;;1.60;;
51828;SDS011;37881;48.024;8.774;2023-04-24T01:50:08;3.17;;;1.60;;
51828;SDS011;37881;48.024;8.774;2023-04-24T01:52:35;4.13;;;1.70;;
51828;SDS011;37881;48.024;8.774;2023-04-24T01:55:02;3.88;;;1.50;;
51828;SDS011;37881;48.024;8.774;2023-04-24T01:57:30;3.55;;;1.52;;
51828;SDS011;37881;48.024;8.774;2023-04-24T01:59:58;2.90;;;1.65;;
51828;SDS011;37881;48.024;8.774;2023-04-24T02:02:24;3.13;;;1.90;;
51828;SDS011;37881;48.024;8.774;2023-04-24T02:04:54;4.65;;;2.08;;
51828;SDS011;37881;48.024;8.774;2023-04-24T02:07:21;3.10;;;1.63;;
51828;SDS011;37881;48.024;8.774;2023-04-24T02:09:48;3.38;;;1.70;;
51828;SDS011;37881;48.024;8.774;2023-04-24T02:12:15;3.05;;;1.70;;
51828;SDS011;37881;48.024;8.774;2023-04-24T02:14:43;3.63;;;1.80;;
51828;SDS011;37881;48.024;8.774;2023-04-24T02:17:10;4.05;;;1.85;;
51828;SDS011;37881;48.024;8.774;2023-04-24T02:19:38;3.17;;;1.70;;
51828;SDS011;37881;48.024;8.774;2023-04-24T02:22:05;2.90;;;1.70;;
51828;SDS011;37881;48.024;8.774;2023-04-24T02:24:32;3.40;;;1.90;;
51828;SDS011;37881;48.024;8.774;2023-04-24T02:26:59;3.67;;;1.70;;
51828;SDS011;37881;48.024;8.774;2023-04-24T02:29:26;3.33;;;1.98;;
51828;SDS011;37881;48.024;8.774;2023-04-24T02:31:53;3.28;;;2.00;;
51828;SDS011;37881;48.024;8.774;2023-04-24T02:34:19;3.42;;;1.92;;
51828;SDS011;37881;48.024;8.774;2023-04-24T02:36:46;3.40;;;2.05;;
51828;SDS011;37881;48.024;8.774;2023-04-24T02:39:13;4.47;;;1.90;;
51828;SDS011;37881;48.024;8.774;2023-04-24T02:41:40;3.78;;;1.90;;
51828;SDS011;37881;48.024;8.774;2023-04-24T02:44:07;3.25;;;1.85;;
51828;SDS011;37881;48.024;8.774;2023-04-24T02:46:33;3.20;;;1.77;;
51828;SDS011;37881;48.024;8.774;2023-04-24T02:49:00;3.17;;;1.92;;
51828;SDS011;37881;48.024;8.774;2023-04-24T02:51:27;4.17;;;1.87;;
51828;SDS011;37881;48.024;8.774;2023-04-24T02:53:53;2.78;;;1.60;;
51828;SDS011;37881;48.024;8.774;2023-04-24T02:56:20;3.05;;;1.75;;
51828;SDS011;37881;48.024;8.774;2023-04-24T02:58:47;3.85;;;1.60;;
51828;SDS011;37881;48.024;8.774;2023-04-24T03:01:13;3.67;;;1.80;;
51828;SDS011;37881;48.024;8.774;2023-04-24T03:03:40;2.90;;;1.60;;
51828;SDS011;37881;48.024;8.774;2023-04-24T03:06:07;3.55;;;1.50;;
51828;SDS011;37881;48.024;8.774;2023-04-24T03:08:34;3.67;;;1.73;;
51828;SDS011;37881;48.024;8.774;2023-04-24T03:11:02;3.08;;;1.50;;
51828;SDS011;37881;48.024;8.774;2023-04-24T03:13:29;3.53;;;1.70;;
51828;SDS011;37881;48.024;8.774;2023-04-24T03:15:55;3.57;;;1.60;;
51828;SDS011;37881;48.024;8.774;2023-04-24T03:18:22;3.75;;;1.90;;
51828;SDS011;37881;48.024;8.774;2023-04-24T03:20:49;2.72;;;1.70;;
51828;SDS011;37881;48.024;8.774;2023-04-24T03:23:16;4.53;;;2.10;;
51828;SDS011;37881;48.024;8.774;2023-04-24T03:25:43;4.63;;;2.00;;
51828;SDS011;37881;48.024;8.774;2023-04-24T03:28:09;3.57;;;2.00;;
51828;SDS011;37881;48.024;8.774;2023-04-24T03:30:36;4.53;;;2.08;;
51828;SDS011;37881;48.024;8.774;2023-04-24T03:33:03;3.65;;;1.92;;
51828;SDS011;37881;48.024;8.774;2023-04-24T03:35:30;3.60;;;2.28;;
51828;SDS011;37881;48.024;8.774;2023-04-24T03:37:56;3.70;;;1.80;;
51828;SDS011;37881;48.024;8.774;2023-04-24T03:40:23;3.93;;;1.60;;
51828;SDS011;37881;48.024;8.774;2023-04-24T03:42:50;5.32;;;1.90;;
51828;SDS011;37881;48.024;8.774;2023-04-24T03:45:16;3.40;;;1.42;;
51828;SDS011;37881;48.024;8.774;2023-04-24T03:47:43;3.50;;;1.63;;
51828;SDS011;37881;48.024;8.774;2023-04-24T03:50:10;3.40;;;1.60;;
51828;SDS011;37881;48.024;8.774;2023-04-24T03:52:38;2.60;;;1.50;;
51828;SDS011;37881;48.024;8.774;2023-04-24T03:55:05;3.00;;;1.50;;
51828;SDS011;37881;48.024;8.774;2023-04-24T03:57:32;4.82;;;2.22;;
51828;SDS011;37881;48.024;8.774;2023-04-24T03:59:59;3.17;;;1.80;;
51828;SDS011;37881;48.024;8.774;2023-04-24T04:02:26;3.95;;;1.77;;
51828;SDS011;37881;48.024;8.774;2023-04-24T04:04:53;3.77;;;1.97;;
51828;SDS011;37881;48.024;8.774;2023-04-24T04:07:20;3.75;;;1.73;;
51828;SDS011;37881;48.024;8.774;2023-04-24T04:09:46;3.53;;;1.90;;
51828;SDS011;37881;48.024;8.774;2023-04-24T04:12:13;3.60;;;1.85;;
51828;SDS011;37881;48.024;8.774;2023-04-24T04:14:40;3.58;;;1.92;;
51828;SDS011;37881;48.024;8.774;2023-04-24T04:17:06;4.23;;;1.80;;
51828;SDS011;37881;48.024;8.774;2023-04-24T04:19:33;3.00;;;1.73;;
51828;SDS011;37881;48.024;8.774;2023-04-24T04:22:00;3.15;;;1.83;;
51828;SDS011;37881;48.024;8.774;2023-04-24T04:24:26;3.35;;;1.55;;
51828;SDS011;37881;48.024;8.774;2023-04-24T04:26:53;4.53;;;1.50;;
51828;SDS011;37881;48.024;8.774;2023-04-24T04:29:23;2.63;;;1.60;;
51828;SDS011;37881;48.024;8.774;2023-04-24T04:31:50;2.80;;;1.23;;
51828;SDS011;37881;48.024;8.774;2023-04-24T04:34:17;3.13;;;1.30;;
51828;SDS011;37881;48.024;8.774;2023-04-24T04:36:44;3.13;;;1.67;;
51828;SDS011;37881;48.024;8.774;2023-04-24T04:39:12;3.45;;;1.70;;
51828;SDS011;37881;48.024;8.774;2023-04-24T04:41:41;3.87;;;1.90;;
51828;SDS011;37881;48.024;8.774;2023-04-24T04:44:08;4.35;;;2.13;;
51828;SDS011;37881;48.024;8.774;2023-04-24T04:46:35;5.10;;;2.67;;
51828;SDS011;37881;48.024;8.774;2023-04-24T04:49:03;3.50;;;1.98;;
51828;SDS011;37881;48.024;8.774;2023-04-24T04:51:30;3.83;;;2.15;;
51828;SDS011;37881;48.024;8.774;2023-04-24T04:53:57;3.50;;;2.00;;
51828;SDS011;37881;48.024;8.774;2023-04-24T04:56:24;4.68;;;2.10;;
51828;SDS011;37881;48.024;8.774;2023-04-24T04:58:50;3.05;;;1.92;;
51828;SDS011;37881;48.024;8.774;2023-04-24T05:01:17;3.83;;;2.08;;
51828;SDS011;37881;48.024;8.774;2023-04-24T05:03:44;3.58;;;1.90;;
51828;SDS011;37881;48.024;8.774;2023-04-24T05:06:11;3.37;;;1.90;;
51828;SDS011;37881;48.024;8.774;2023-04-24T05:08:38;4.43;;;2.10;;
51828;SDS011;37881;48.024;8.774;2023-04-24T05:11:04;3.63;;;1.80;;
51828;SDS011;37881;48.024;8.774;2023-04-24T05:13:32;3.38;;;1.70;;
51828;SDS011;37881;48.024;8.774;2023-04-24T05:16:06;2.65;;;1.50;;
51828;SDS011;37881;48.024;8.774;2023-04-24T05:18:33;4.47;;;1.50;;
51828;SDS011;37881;48.024;8.774;2023-04-24T05:21:00;2.97;;;1.58;;
51828;SDS011;37881;48.024;8.774;2023-04-24T05:23:27;2.53;;;1.38;;
51828;SDS011;37881;48.024;8.774;2023-04-24T05:25:54;3.40;;;1.70;;
51828;SDS011;37881;48.024;8.774;2023-04-24T05:28:21;5.40;;;1.60;;
51828;SDS011;37881;48.024;8.774;2023-04-24T05:30:47;2.30;;;1.30;;
51828;SDS011;37881;48.024;8.774;2023-04-24T05:33:14;2.85;;;1.20;;
51828;SDS011;37881;48.024;8.774;2023-04-24T05:35:41;4.28;;;1.58;;
51828;SDS011;37881;48.024;8.774;2023-04-24T05:38:16;3.78;;;1.80;;
51828;SDS011;37881;48.024;8.774;2023-04-24T05:40:45;4.35;;;2.40;;
51828;SDS011;37881;48.024;8.774;2023-04-24T05:43:12;5.17;;;3.10;;
51828;SDS011;37881;48.024;8.774;2023-04-24T05:45:39;5.80;;;2.83;;
51828;SDS011;37881;48.024;8.774;2023-04-24T05:48:06;5.65;;;3.38;;
51828;SDS011;37881;48.024;8.774;2023-04-24T05:50:33;5.70;;;3.50;;
51828;SDS011;37881;48.024;8.774;2023-04-24T05:53:02;7.10;;;3.45;;
51828;SDS011;37881;48.024;8.774;2023-04-24T05:55:30;6.87;;;3.23;;
51828;SDS011;37881;48.024;8.774;2023-04-24T05:57:57;6.10;;;3.53;;
51828;SDS011;37881;48.024;8.774;2023-04-24T06:00:24;5.13;;;3.30;;
51828;SDS011;37881;48.024;8.774;2023-04-24T06:02:52;4.88;;;2.72;;
51828;SDS011;37881;48.024;8.774;2023-04-24T06:05:21;6.05;;;2.90;;
51828;SDS011;37881;48.024;8.774;2023-04-24T06:07:48;4.33;;;2.60;;
51828;SDS011;37881;48.024;8.774;2023-04-24T06:10:15;5.07;;;2.80;;
51828;SDS011;37881;48.024;8.774;2023-04-24T06:12:41;5.25;;;2.97;;
51828;SDS011;37881;48.024;8.774;2023-04-24T06:15:08;6.35;;;2.88;;
51828;SDS011;37881;48.024;8.774;2023-04-24T06:17:36;5.63;;;3.30;;
51828;SDS011;37881;48.024;8.774;2023-04-24T06:20:02;5.27;;;2.90;;
51828;SDS011;37881;48.024;8.774;2023-04-24T06:22:31;3.88;;;2.72;;
51828;SDS011;37881;48.024;8.774;2023-04-24T06:24:59;3.72;;;2.10;;
51828;SDS011;37881;48.024;8.774;2023-04-24T06:27:26;3.83;;;2.40;;
51828;SDS011;37881;48.024;8.774;2023-04-24T06:29:53;3.78;;;2.15;;
51828;SDS011;37881;48.024;8.774;2023-04-24T06:32:21;3.53;;;2.30;;
51828;SDS011;37881;48.024;8.774;2023-04-24T06:34:51;4.07;;;2.50;;
51828;SDS011;37881;48.024;8.774;2023-04-24T06:37:19;3.13;;;2.10;;
51828;SDS011;37881;48.024;8.774;2023-04-24T06:39:46;3.35;;;2.17;;
51828;SDS011;37881;48.024;8.774;2023-04-24T06:42:13;4.10;;;2.17;;
51828;SDS011;37881;48.024;8.774;2023-04-24T06:44:40;4.67;;;2.33;;
51828;SDS011;37881;48.024;8.774;2023-04-24T06:47:07;3.95;;;2.40;;
51828;SDS011;37881;48.024;8.774;2023-04-24T06:49:35;3.42;;;2.20;;
51828;SDS011;37881;48.024;8.774;2023-04-24T06:52:03;6.15;;;2.45;;
51828;SDS011;37881;48.024;8.774;2023-04-24T06:54:30;4.55;;;2.40;;
51828;SDS011;37881;48.024;8.774;2023-04-24T06:56:57;3.60;;;2.40;;
51828;SDS011;37881;48.024;8.774;2023-04-24T06:59:24;3.50;;;2.00;;
51828;SDS011;37881;48.024;8.774;2023-04-24T07:01:51;4.13;;;2.08;;
51828;SDS011;37881;48.024;8.774;2023-04-24T07:04:20;4.07;;;2.13;;
51828;SDS011;37881;48.024;8.774;2023-04-24T07:06:48;3.35;;;2.00;;
51828;SDS011;37881;48.024;8.774;2023-04-24T07:09:17;3.20;;;1.83;;
51828;SDS011;37881;48.024;8.774;2023-04-24T07:11:45;3.47;;;1.63;;
51828;SDS011;37881;48.024;8.774;2023-04-24T07:14:12;2.67;;;1.70;;
51828;SDS011;37881;48.024;8.774;2023-04-24T07:16:39;3.15;;;1.60;;
51828;SDS011;37881;48.024;8.774;2023-04-24T07:19:06;3.15;;;1.70;;
51828;SDS011;37881;48.024;8.774;2023-04-24T07:21:33;2.30;;;1.60;;
51828;SDS011;37881;48.024;8.774;2023-04-24T07:24:00;2.85;;;1.40;;
51828;SDS011;37881;48.024;8.774;2023-04-24T07:26:28;4.80;;;2.20;;
51828;SDS011;37881;48.024;8.774;2023-04-24T07:28:56;3.03;;;1.70;;
51828;SDS011;37881;48.024;8.774;2023-04-24T07:31:22;6.13;;;2.33;;
51828;SDS011;37881;48.024;8.774;2023-04-24T07:33:49;4.40;;;1.77;;
51828;SDS011;37881;48.024;8.774;2023-04-24T07:36:16;3.83;;;1.85;;
51828;SDS011;37881;48.024;8.774;2023-04-24T07:38:45;4.20;;;1.65;;
51828;SDS011;37881;48.024;8.774;2023-04-24T07:41:13;3.67;;;1.90;;
51828;SDS011;37881;48.024;8.774;2023-04-24T07:43:40;3.65;;;1.80;;
51828;SDS011;37881;48.024;8.774;2023-04-24T07:46:08;3.30;;;1.70;;
51828;SDS011;37881;48.024;8.774;2023-04-24T07:48:35;3.42;;;2.00;;
51828;SDS011;37881;48.024;8.774;2023-04-24T07:51:03;5.70;;;2.20;;
51828;SDS011;37881;48.024;8.774;2023-04-24T07:53:29;3.50;;;1.80;;
51828;SDS011;37881;48.024;8.774;2023-04-24T07:55:56;4.55;;;1.90;;
51828;SDS011;37881;48.024;8.774;2023-04-24T07:58:23;4.70;;;1.80;;
51828;SDS011;37881;48.024;8.774;2023-04-24T08:00:50;4.85;;;1.92;;
51828;SDS011;37881;48.024;8.774;2023-04-24T08:03:17;4.50;;;1.90;;
51828;SDS011;37881;48.024;8.774;2023-04-24T08:05:46;7.50;;;1.77;;
51828;SDS011;37881;48.024;8.774;2023-04-24T08:08:13;3.70;;;1.98;;
51828;SDS011;37881;48.024;8.774;2023-04-24T08:10:40;3.73;;;1.93;;
51828;SDS011;37881;48.024;8.774;2023-04-24T08:13:07;3.17;;;1.60;;
51828;SDS011;37881;48.024;8.774;2023-04-24T08:15:34;2.90;;;1.83;;
51828;SDS011;37881;48.024;8.774;2023-04-24T08:18:01;3.15;;;1.85;;
51828;SDS011;37881;48.024;8.774;2023-04-24T08:20:27;3.35;;;1.90;;
51828;SDS011;37881;48.024;8.774;2023-04-24T08:22:54;3.00;;;1.83;;
51828;SDS011;37881;48.024;8.774;2023-04-24T08:25:22;3.58;;;1.90;;
51828;SDS011;37881;48.024;8.774;2023-04-24T08:27:50;4.07;;;2.10;;
51828;SDS011;37881;48.024;8.774;2023-04-24T08:30:18;4.35;;;2.00;;
51828;SDS011;37881;48.024;8.774;2023-04-24T08:32:44;5.70;;;2.13;;
51828;SDS011;37881;48.024;8.774;2023-04-24T08:35:11;3.83;;;2.13;;
51828;SDS011;37881;48.024;8.774;2023-04-24T08:37:38;5.82;;;2.17;;
51828;SDS011;37881;48.024;8.774;2023-04-24T08:40:06;4.35;;;2.00;;
51828;SDS011;37881;48.024;8.774;2023-04-24T08:42:39;3.47;;;1.90;;
51828;SDS011;37881;48.024;8.774;2023-04-24T08:45:09;5.78;;;2.00;;
51828;SDS011;37881;48.024;8.774;2023-04-24T08:47:38;3.57;;;2.10;;
51828;SDS011;37881;48.024;8.774;2023-04-24T08:50:06;4.10;;;2.40;;
51828;SDS011;37881;48.024;8.774;2023-04-24T08:52:34;3.95;;;1.70;;
51828;SDS011;37881;48.024;8.774;2023-04-24T08:55:01;3.75;;;2.00;;
51828;SDS011;37881;48.024;8.774;2023-04-24T08:57:29;4.57;;;2.05;;
51828;SDS011;37881;48.024;8.774;2023-04-24T08:59:57;3.90;;;2.00;;
51828;SDS011;37881;48.024;8.774;2023-04-24T09:02:25;3.70;;;1.90;;
51828;SDS011;37881;48.024;8.774;2023-04-24T09:04:52;3.35;;;1.80;;
51828;SDS011;37881;48.024;8.774;2023-04-24T09:07:20;3.05;;;1.70;;
51828;SDS011;37881;48.024;8.774;2023-04-24T09:09:50;3.22;;;1.75;;
51828;SDS011;37881;48.024;8.774;2023-04-24T09:12:18;3.00;;;1.90;;
51828;SDS011;37881;48.024;8.774;2023-04-24T09:14:45;3.17;;;1.80;;
51828;SDS011;37881;48.024;8.774;2023-04-24T09:17:12;4.10;;;2.33;;
51828;SDS011;37881;48.024;8.774;2023-04-24T09:19:39;3.55;;;2.30;;
51828;SDS011;37881;48.024;8.774;2023-04-24T09:22:07;4.63;;;1.90;;
51828;SDS011;37881;48.024;8.774;2023-04-24T09:24:34;3.73;;;1.77;;
51828;SDS011;37881;48.024;8.774;2023-04-24T09:27:01;3.00;;;2.10;;
51828;SDS011;37881;48.024;8.774;2023-04-24T09:29:28;4.95;;;1.90;;
51828;SDS011;37881;48.024;8.774;2023-04-24T09:31:55;3.45;;;2.00;;
51828;SDS011;37881;48.024;8.774;2023-04-24T09:34:22;3.80;;;2.20;;
51828;SDS011;37881;48.024;8.774;2023-04-24T09:36:51;4.00;;;2.17;;
51828;SDS011;37881;48.024;8.774;2023-04-24T09:39:18;5.40;;;2.60;;
51828;SDS011;37881;48.024;8.774;2023-04-24T09:41:49;3.80;;;2.20;;
51828;SDS011;37881;48.024;8.774;2023-04-24T09:44:22;4.72;;;2.33;;
51828;SDS011;37881;48.024;8.774;2023-04-24T09:46:51;6.85;;;2.42;;
51828;SDS011;37881;48.024;8.774;2023-04-24T09:49:27;4.23;;;2.47;;
51828;SDS011;37881;48.024;8.774;2023-04-24T09:54:32;4.10;;;2.22;;
51828;SDS011;37881;48.024;8.774;2023-04-24T09:56:59;4.05;;;2.30;;
51828;SDS011;37881;48.024;8.774;2023-04-24T09:59:27;4.10;;;2.50;;
51828;SDS011;37881;48.024;8.774;2023-04-24T10:01:54;5.00;;;2.70;;
51828;SDS011;37881;48.024;8.774;2023-04-24T10:04:21;6.15;;;2.10;;
51828;SDS011;37881;48.024;8.774;2023-04-24T10:06:51;4.32;;;2.40;;
51828;SDS011;37881;48.024;8.774;2023-04-24T10:09:21;3.95;;;2.30;;
51828;SDS011;37881;48.024;8.774;2023-04-24T10:11:51;7.03;;;2.50;;
51828;SDS011;37881;48.024;8.774;2023-04-24T10:14:21;4.37;;;2.57;;
51828;SDS011;37881;48.024;8.774;2023-04-24T10:16:49;5.03;;;2.60;;
51828;SDS011;37881;48.024;8.774;2023-04-24T10:19:18;4.65;;;2.25;;
51828;SDS011;37881;48.024;8.774;2023-04-24T10:21:46;4.93;;;2.70;;
51828;SDS011;37881;48.024;8.774;2023-04-24T10:24:14;5.25;;;2.80;;
51828;SDS011;37881;48.024;8.774;2023-04-24T10:26:42;5.00;;;2.50;;
51828;SDS011;37881;48.024;8.774;2023-04-24T10:29:10;4.07;;;2.55;;
51828;SDS011;37881;48.024;8.774;2023-04-24T10:31:39;4.97;;;2.70;;
51828;SDS011;37881;48.024;8.774;2023-04-24T10:34:06;4.72;;;2.40;;
51828;SDS011;37881;48.024;8.774;2023-04-24T10:36:34;5.13;;;2.65;;
51828;SDS011;37881;48.024;8.774;2023-04-24T10:39:03;5.73;;;2.60;;
51828;SDS011;37881;48.024;8.774;2023-04-24T10:41:36;3.72;;;2.15;;
51828;SDS011;37881;48.024;8.774;2023-04-24T10:44:07;4.85;;;2.30;;
51828;SDS011;37881;48.024;8.774;2023-04-24T10:46:36;6.82;;;2.45;;
51828;SDS011;37881;48.024;8.774;2023-04-24T10:49:04;4.70;;;2.47;;
51828;SDS011;37881;48.024;8.774;2023-04-24T10:51:48;4.17;;;2.43;;
51828;SDS011;37881;48.024;8.774;2023-04-24T10:54:26;3.90;;;2.40;;
51828;SDS011;37881;48.024;8.774;2023-04-24T10:59:50;4.75;;;2.55;;
51828;SDS011;37881;48.024;8.774;2023-04-24T11:02:38;4.53;;;2.20;;
51828;SDS011;37881;48.024;8.774;2023-04-24T11:05:07;4.10;;;2.20;;
51828;SDS011;37881;48.024;8.774;2023-04-24T11:08:09;6.82;;;2.45;;
51828;SDS011;37881;48.024;8.774;2023-04-24T11:10:46;5.55;;;2.22;;
51828;SDS011;37881;48.024;8.774;2023-04-24T11:13:23;10.43;;;4.47;;
51828;SDS011;37881;48.024;8.774;2023-04-24T11:18:50;5.83;;;2.50;;
51828;SDS011;37881;48.024;8.774;2023-04-24T11:21:22;3.88;;;2.35;;
51828;SDS011;37881;48.024;8.774;2023-04-24T11:23:48;7.07;;;3.58;;
51828;SDS011;37881;48.024;8.774;2023-04-24T11:26:19;5.70;;;3.17;;
51828;SDS011;37881;48.024;8.774;2023-04-24T11:28:50;4.13;;;2.35;;
51828;SDS011;37881;48.024;8.774;2023-04-24T11:34:10;3.33;;;2.05;;
51828;SDS011;37881;48.024;8.774;2023-04-24T11:36:38;3.20;;;1.98;;
51828;SDS011;37881;48.024;8.774;2023-04-24T11:39:06;4.55;;;2.28;;
51828;SDS011;37881;48.024;8.774;2023-04-24T11:41:33;4.35;;;2.20;;
51828;SDS011;37881;48.024;8.774;2023-04-24T11:44:00;4.40;;;2.10;;
51828;SDS011;37881;48.024;8.774;2023-04-24T11:46:28;5.40;;;2.20;;
51828;SDS011;37881;48.024;8.774;2023-04-24T11:48:56;4.03;;;2.00;;
51828;SDS011;37881;48.024;8.774;2023-04-24T11:51:24;3.65;;;1.73;;
51828;SDS011;37881;48.024;8.774;2023-04-24T11:54:01;4.10;;;1.80;;
51828;SDS011;37881;48.024;8.774;2023-04-24T11:56:29;4.50;;;2.10;;
51828;SDS011;37881;48.024;8.774;2023-04-24T11:58:56;4.65;;;2.03;;
51828;SDS011;37881;48.024;8.774;2023-04-24T12:01:23;4.63;;;1.70;;
51828;SDS011;37881;48.024;8.774;2023-04-24T12:03:50;3.72;;;1.92;;
51828;SDS011;37881;48.024;8.774;2023-04-24T12:06:26;3.75;;;2.00;;
51828;SDS011;37881;48.024;8.774;2023-04-24T12:08:52;4.27;;;1.90;;
51828;SDS011;37881;48.024;8.774;2023-04-24T12:11:29;3.70;;;1.70;;
51828;SDS011;37881;48.024;8.774;2023-04-24T12:13:56;4.03;;;1.70;;
51828;SDS011;37881;48.024;8.774;2023-04-24T12:16:24;3.63;;;1.80;;
51828;SDS011;37881;48.024;8.774;2023-04-24T12:18:52;3.97;;;1.83;;
51828;SDS011;37881;48.024;8.774;2023-04-24T12:21:19;2.93;;;1.77;;
51828;SDS011;37881;48.024;8.774;2023-04-24T12:23:48;3.50;;;1.95;;
51828;SDS011;37881;48.024;8.774;2023-04-24T12:26:16;3.75;;;1.92;;
51828;SDS011;37881;48.024;8.774;2023-04-24T12:28:47;4.40;;;2.25;;
51828;SDS011;37881;48.024;8.774;2023-04-24T12:31:15;4.85;;;2.88;;
51828;SDS011;37881;48.024;8.774;2023-04-24T12:33:43;4.67;;;2.67;;
51828;SDS011;37881;48.024;8.774;2023-04-24T12:36:10;3.97;;;2.20;;
51828;SDS011;37881;48.024;8.774;2023-04-24T12:38:39;3.97;;;2.10;;
51828;SDS011;37881;48.024;8.774;2023-04-24T12:41:11;4.32;;;2.10;;
51828;SDS011;37881;48.024;8.774;2023-04-24T12:43:50;5.68;;;2.40;;
51828;SDS011;37881;48.024;8.774;2023-04-24T12:46:20;3.93;;;2.10;;
51828;SDS011;37881;48.024;8.774;2023-04-24T12:48:48;4.60;;;2.55;;
51828;SDS011;37881;48.024;8.774;2023-04-24T12:51:14;4.88;;;2.63;;
51828;SDS011;37881;48.024;8.774;2023-04-24T12:53:41;3.95;;;2.33;;
51828;SDS011;37881;48.024;8.774;2023-04-24T12:56:08;3.80;;;2.25;;
51828;SDS011;37881;48.024;8.774;2023-04-24T12:58:35;3.50;;;2.00;;
51828;SDS011;37881;48.024;8.774;2023-04-24T13:01:02;4.15;;;2.10;;
51828;SDS011;37881;48.024;8.774;2023-04-24T13:03:29;4.20;;;2.30;;
51828;SDS011;37881;48.024;8.774;2023-04-24T13:05:56;3.85;;;2.00;;
51828;SDS011;37881;48.024;8.774;2023-04-24T13:08:22;3.63;;;2.03;;
51828;SDS011;37881;48.024;8.774;2023-04-24T13:10:49;3.60;;;2.13;;
51828;SDS011;37881;48.024;8.774;2023-04-24T13:13:17;3.80;;;1.90;;
51828;SDS011;37881;48.024;8.774;2023-04-24T13:15:43;3.13;;;2.00;;
51828;SDS011;37881;48.024;8.774;2023-04-24T13:18:10;4.22;;;1.70;;
51828;SDS011;37881;48.024;8.774;2023-04-24T13:20:37;5.70;;;2.20;;
51828;SDS011;37881;48.024;8.774;2023-04-24T13:23:04;3.93;;;1.90;;
51828;SDS011;37881;48.024;8.774;2023-04-24T13:25:35;3.60;;;1.70;;
51828;SDS011;37881;48.024;8.774;2023-04-24T13:28:03;3.00;;;1.80;;
51828;SDS011;37881;48.024;8.774;2023-04-24T13:30:30;3.60;;;2.03;;
51828;SDS011;37881;48.024;8.774;2023-04-24T13:32:57;4.07;;;1.75;;
51828;SDS011;37881;48.024;8.774;2023-04-24T13:35:24;3.93;;;2.30;;
51828;SDS011;37881;48.024;8.774;2023-04-24T13:37:51;3.75;;;2.03;;
51828;SDS011;37881;48.024;8.774;2023-04-24T13:40:18;3.90;;;2.00;;
51828;SDS011;37881;48.024;8.774;2023-04-24T13:42:44;4.40;;;1.98;;
51828;SDS011;37881;48.024;8.774;2023-04-24T13:45:11;4.35;;;2.10;;
51828;SDS011;37881;48.024;8.774;2023-04-24T13:47:49;3.63;;;2.10;;
51828;SDS011;37881;48.024;8.774;2023-04-24T13:50:17;3.03;;;1.90;;
51828;SDS011;37881;48.024;8.774;2023-04-24T13:52:44;3.47;;;2.15;;
51828;SDS011;37881;48.024;8.774;2023-04-24T13:55:12;3.72;;;2.03;;
51828;SDS011;37881;48.024;8.774;2023-04-24T13:57:39;5.40;;;2.13;;
51828;SDS011;37881;48.024;8.774;2023-04-24T14:00:06;4.50;;;2.50;;
51828;SDS011;37881;48.024;8.774;2023-04-24T14:02:37;5.80;;;3.10;;
51828;SDS011;37881;48.024;8.774;2023-04-24T14:05:04;4.40;;;2.55;;
51828;SDS011;37881;48.024;8.774;2023-04-24T14:07:32;4.20;;;2.60;;
51828;SDS011;37881;48.024;8.774;2023-04-24T14:09:59;5.07;;;2.30;;
51828;SDS011;37881;48.024;8.774;2023-04-24T14:12:26;5.97;;;2.90;;
51828;SDS011;37881;48.024;8.774;2023-04-24T14:14:53;5.15;;;2.63;;
51828;SDS011;37881;48.024;8.774;2023-04-24T14:17:20;5.45;;;2.80;;
51828;SDS011;37881;48.024;8.774;2023-04-24T14:19:47;7.22;;;4.53;;
51828;SDS011;37881;48.024;8.774;2023-04-24T14:22:13;5.10;;;3.15;;
51828;SDS011;37881;48.024;8.774;2023-04-24T14:24:40;5.30;;;3.30;;
51828;SDS011;37881;48.024;8.774;2023-04-24T14:27:07;5.70;;;2.55;;
51828;SDS011;37881;48.024;8.774;2023-04-24T14:29:33;4.10;;;2.38;;
51828;SDS011;37881;48.024;8.774;2023-04-24T14:32:00;3.55;;;2.22;;
51828;SDS011;37881;48.024;8.774;2023-04-24T14:34:27;3.97;;;2.40;;
51828;SDS011;37881;48.024;8.774;2023-04-24T14:36:54;3.80;;;2.30;;
51828;SDS011;37881;48.024;8.774;2023-04-24T14:39:20;4.28;;;2.10;;
51828;SDS011;37881;48.024;8.774;2023-04-24T14:41:47;4.32;;;2.10;;
51828;SDS011;37881;48.024;8.774;2023-04-24T14:44:14;4.57;;;2.55;;
51828;SDS011;37881;48.024;8.774;2023-04-24T14:46:41;5.63;;;2.90;;
51828;SDS011;37881;48.024;8.774;2023-04-24T14:49:08;4.03;;;2.37;;
51828;SDS011;37881;48.024;8.774;2023-04-24T14:51:36;4.50;;;2.60;;
51828;SDS011;37881;48.024;8.774;2023-04-24T14:54:03;4.22;;;2.30;;
51828;SDS011;37881;48.024;8.774;2023-04-24T14:56:30;3.97;;;2.08;;
51828;SDS011;37881;48.024;8.774;2023-04-24T14:58:56;5.07;;;2.50;;
51828;SDS011;37881;48.024;8.774;2023-04-24T15:01:23;4.63;;;2.10;;
51828;SDS011;37881;48.024;8.774;2023-04-24T15:03:50;5.13;;;2.38;;